Currently 43°F in French Valley, California, USA
43°F
52°F / 43°F
calm
0.00"
Wednesday, December 13, 2017 6:36 AM PST

French Valley, California Weather Summary
Last 36 Hours

Temperature Winds Hourly Humidity Dewpoint
Time Report Norm Report Norm Max Gusts Precip. Rpt. Norm Rpt. Norm Pressure
1Wed 06:36 AM  42.5°F  46°F  calm  1 mph  none  0.00"  42%  82%  20°F  40°F  30.16"
3Wed 06:35 AM  42.5°F  46°F  calm  1 mph  none  ----  42%  82%  20°F  40°F  30.16"
Wed 06:00 AM  46.0°F  46°F  2 mph NW  1 mph  7 mph  0.00"  34%  82%  18°F  41°F  30.15"
Wed 05:00 AM  45.8°F  46°F  calm  2 mph  6 mph  0.00"  34%  81%  18°F  41°F  30.15"
Wed 04:00 AM  47.2°F  47°F  3 mph SW  1 mph  2 mph  0.00"  33%  81%  18°F  41°F  30.16"
Wed 03:00 AM  48.6°F  47°F  calm  1 mph  4 mph  0.00"  34%  80%  20°F  41°F  30.16"
Wed 02:00 AM  50.7°F  48°F  calm  1 mph  9 mph  0.00"  30%  80%  19°F  42°F  30.16"
Wed 01:00 AM  49.2°F  48°F  calm  1 mph  4 mph  0.00"  29%  80%  17°F  42°F  30.16"
2Wed 12:23 AM  52.2°F  49°F  calm  1 mph  4 mph  ----  39%  79%  27°F  43°F  30.16"
Wed 12:00 AM  52.0°F  49°F  calm  1 mph  7 mph  0.00"  25%  79%  16°F  43°F  30.16"
Tue 11:00 PM  53.3°F  50°F  4 mph E  2 mph  7 mph  0.00"  37%  78%  26°F  43°F  30.16"
Tue 10:00 PM  57.3°F  51°F  1 mph W  1 mph  6 mph  0.00"  19%  77%  14°F  43°F  30.16"
Tue 09:00 PM  54.6°F  52°F  calm  1 mph  8 mph  0.00"  34%  76%  26°F  44°F  30.16"
Tue 08:00 PM  56.6°F  53°F  calm  2 mph  4 mph  0.00"  25%  74%  19°F  45°F  30.15"
Tue 07:00 PM  58.9°F  54°F  2 mph NE  2 mph  5 mph  0.00"  36%  73%  31°F  45°F  30.15"
Tue 06:00 PM  69.4°F  57°F  calm  2 mph  6 mph  0.00"  12%  68%  13°F  46°F  30.14"
Tue 05:00 PM  73.2°F  60°F  1 mph E  2 mph  9 mph  0.00"  11%  60%  13°F  46°F  30.13"
Tue 04:00 PM  78.9°F  63°F  4 mph NW  3 mph  13 mph  0.00"  8%  52%  11°F  45°F  30.12"
Tue 03:00 PM  81.8°F  65°F  4 mph W  4 mph  8 mph  0.00"  7%  49%  10°F  44°F  30.12"
Tue 02:00 PM  80.3°F  65°F  6 mph W  4 mph  13 mph  0.00"  7%  48%  8°F  44°F  30.14"
Tue 01:00 PM  79.4°F  64°F  5 mph NW  4 mph  12 mph  0.00"  8%  49%  10°F  44°F  30.17"
Tue 12:00 PM  75.1°F  63°F  5 mph NW  3 mph  11 mph  0.00"  10%  52%  13°F  44°F  30.22"
Tue 11:00 AM  70.7°F  60°F  5 mph NW  3 mph  12 mph  0.00"  13%  57%  14°F  44°F  30.27"
Tue 10:00 AM  66.2°F  57°F  4 mph NW  3 mph  11 mph  0.00"  15%  65%  16°F  44°F  30.32"
Tue 09:00 AM  58.8°F  53°F  5 mph NW  2 mph  9 mph  0.00"  23%  72%  20°F  44°F  30.33"
Tue 08:00 AM  50.2°F  48°F  3 mph W  2 mph  9 mph  0.00"  31%  80%  19°F  42°F  30.33"
Tue 07:00 AM  46.8°F  46°F  calm  1 mph  8 mph  0.00"  35%  82%  19°F  40°F  30.32"
Tue 06:00 AM  44.7°F  46°F  2 mph SW  1 mph  7 mph  0.00"  39%  82%  20°F  41°F  30.33"
Tue 05:00 AM  43.8°F  46°F  1 mph N  2 mph  6 mph  0.00"  40%  81%  20°F  41°F  30.34"
Tue 04:00 AM  46.1°F  47°F  2 mph N  1 mph  5 mph  0.00"  35%  81%  19°F  41°F  30.33"
Tue 03:00 AM  47.6°F  47°F  calm  1 mph  8 mph  0.00"  30%  80%  16°F  41°F  30.33"
Tue 02:00 AM  51.1°F  48°F  4 mph E  1 mph  7 mph  0.00"  32%  80%  21°F  42°F  30.33"
Tue 01:00 AM  49.0°F  48°F  calm  1 mph  4 mph  0.00"  31%  80%  18°F  42°F  30.32"
Tue 12:00 AM  53.2°F  49°F  3 mph E  1 mph  4 mph  0.00"  28%  79%  19°F  42°F  30.32"
Mon 11:00 PM  53.4°F  50°F  calm  2 mph  8 mph  0.00"  33%  78%  23°F  43°F  30.32"
Mon 10:00 PM  56.6°F  51°F  calm  1 mph  5 mph  0.00"  27%  77%  22°F  43°F  30.31"
Mon 09:00 PM  53.9°F  52°F  calm  1 mph  5 mph  0.00"  38%  76%  28°F  44°F  30.30"
Mon 08:00 PM  59.0°F  53°F  calm  2 mph  none  0.00"  25%  75%  22°F  45°F  30.29"
Mon 07:00 PM  60.4°F  54°F  calm  2 mph  6 mph  0.00"  42%  73%  36°F  45°F  30.28"

  1. Current weather data. No green row appears if the current weather data is also the high or low for the current day.
  2. High temperature for the current day.
  3. Low temperature for the current day.

The French Valley, California weather pages are a service of WeatherCurrents. French Valley is located in southwestern Riverside County, California, north of Temecula, east of Murrieta, and south of Winchester. French Valley is bordered by Lake Skinner.
Copyright ©Wed Dec 13 06:37:14 PST 2017  WeatherCurrents. All rights reserved. - Submit questions and comments - Privacy Policy

This page automatically refreshes every 10 minutes.